createdAt,value
2017-05-30T00:00:44.951Z,1003.98
2017-05-30T00:01:46.521Z,1003.99
2017-05-30T00:02:47.980Z,1003.96
2017-05-30T00:03:49.440Z,1003.98
2017-05-30T00:04:50.901Z,1004.03
2017-05-30T00:05:52.370Z,1004.06
2017-05-30T00:06:53.836Z,1004.03
2017-05-30T00:07:55.294Z,1004.09
2017-05-30T00:08:56.756Z,1004.13
2017-05-30T00:09:58.220Z,1004.11
2017-05-30T00:10:59.686Z,1004.15
2017-05-30T00:12:01.147Z,1004.21
2017-05-30T00:13:02.612Z,1004.23
2017-05-30T00:14:04.087Z,1004.25
2017-05-30T00:15:05.548Z,1004.27
2017-05-30T00:16:07.063Z,1004.26
2017-05-30T00:17:08.520Z,1004.27
2017-05-30T00:18:09.983Z,1004.30
2017-05-30T00:19:11.441Z,1004.37
2017-05-30T00:20:12.900Z,1004.41
2017-05-30T00:21:14.367Z,1004.49
2017-05-30T00:22:15.832Z,1004.51
2017-05-30T00:23:17.289Z,1004.53
2017-05-30T00:24:18.745Z,1004.47
2017-05-30T00:25:20.209Z,1004.45
2017-05-30T00:26:21.672Z,1004.41
2017-05-30T00:27:23.131Z,1004.41
2017-05-30T00:28:24.595Z,1004.37
2017-05-30T00:29:26.073Z,1004.33
2017-05-30T00:30:27.530Z,1004.35
2017-05-30T00:31:29.002Z,1004.35
2017-05-30T00:32:30.460Z,1004.30
2017-05-30T00:33:31.919Z,1004.32
2017-05-30T00:34:33.378Z,1004.23
2017-05-30T00:35:34.838Z,1004.24
2017-05-30T00:36:36.309Z,1004.25
2017-05-30T00:37:37.784Z,1004.28
2017-05-30T00:38:39.239Z,1004.31
2017-05-30T00:39:40.704Z,1004.24
2017-05-30T00:40:42.167Z,1004.20
2017-05-30T00:41:43.629Z,1004.24
2017-05-30T00:42:45.091Z,1004.26
2017-05-30T00:43:46.552Z,1004.27
2017-05-30T00:44:48.014Z,1004.23
2017-05-30T00:45:49.473Z,1004.19
2017-05-30T00:46:50.938Z,1004.20
2017-05-30T00:47:52.402Z,1004.17
2017-05-30T00:48:53.863Z,1004.21
2017-05-30T00:49:55.327Z,1004.15
2017-05-30T00:50:56.788Z,1004.18
2017-05-30T00:51:58.242Z,1004.16
2017-05-30T00:52:59.704Z,1004.15
2017-05-30T00:54:01.162Z,1004.16
2017-05-30T00:55:02.629Z,1004.19
2017-05-30T00:56:04.097Z,1004.25
2017-05-30T00:57:05.559Z,1004.29
2017-05-30T00:58:07.014Z,1004.31
2017-05-30T00:59:08.478Z,1004.30
2017-05-30T01:00:09.945Z,1004.25
2017-05-30T01:01:11.415Z,1004.22
2017-05-30T01:02:12.873Z,1004.23
2017-05-30T01:03:14.339Z,1004.29
2017-05-30T01:04:15.801Z,1004.36
2017-05-30T01:05:17.264Z,1004.46
2017-05-30T01:06:18.726Z,1004.53
2017-05-30T01:07:20.195Z,1004.53
2017-05-30T01:08:21.658Z,1004.54
2017-05-30T01:09:23.119Z,1004.51
2017-05-30T01:10:24.580Z,1004.54
2017-05-30T01:11:26.048Z,1004.57
2017-05-30T01:12:27.496Z,1004.51
2017-05-30T01:13:28.958Z,1004.50
2017-05-30T01:14:30.420Z,1004.54
2017-05-30T01:15:31.875Z,1004.52
2017-05-30T01:16:33.338Z,1004.55
2017-05-30T01:17:34.797Z,1004.57
2017-05-30T01:18:36.261Z,1004.58
2017-05-30T01:19:37.725Z,1004.57
2017-05-30T01:20:39.182Z,1004.55
2017-05-30T01:21:40.637Z,1004.53
2017-05-30T01:22:42.096Z,1004.51
2017-05-30T01:23:43.556Z,1004.50
2017-05-30T01:24:45.016Z,1004.46
2017-05-30T01:25:46.482Z,1004.45
2017-05-30T01:26:47.945Z,1004.39
2017-05-30T01:27:49.404Z,1004.42
2017-05-30T01:28:50.857Z,1004.45
2017-05-30T01:29:52.329Z,1004.50
2017-05-30T01:30:53.792Z,1004.44
2017-05-30T01:31:55.263Z,1004.45
2017-05-30T01:32:56.725Z,1004.42
2017-05-30T01:33:58.191Z,1004.34
2017-05-30T01:34:59.646Z,1004.29
2017-05-30T01:36:01.105Z,1004.26
2017-05-30T01:37:02.574Z,1004.24
2017-05-30T01:38:04.032Z,1004.28
2017-05-30T01:39:05.485Z,1004.29
2017-05-30T01:40:06.950Z,1004.31
2017-05-30T01:41:08.405Z,1004.32
2017-05-30T01:42:09.859Z,1004.32
2017-05-30T01:43:11.329Z,1004.33
2017-05-30T01:44:12.803Z,1004.36
2017-05-30T01:45:14.268Z,1004.35
2017-05-30T01:46:15.735Z,1004.34
2017-05-30T01:47:17.194Z,1004.34
2017-05-30T01:48:18.647Z,1004.39
2017-05-30T01:49:20.104Z,1004.45
2017-05-30T01:50:21.563Z,1004.48
2017-05-30T01:51:23.021Z,1004.49
2017-05-30T01:52:24.482Z,1004.50
2017-05-30T01:53:25.937Z,1004.56
2017-05-30T01:54:27.395Z,1004.52
2017-05-30T01:55:28.854Z,1004.52
2017-05-30T01:56:30.310Z,1004.57
2017-05-30T01:57:31.767Z,1004.51
2017-05-30T01:58:33.219Z,1004.54
2017-05-30T01:59:34.684Z,1004.49
2017-05-30T02:00:36.142Z,1004.48
2017-05-30T02:01:37.602Z,1004.45
2017-05-30T02:02:39.060Z,1004.47
2017-05-30T02:03:40.513Z,1004.43
2017-05-30T02:04:41.976Z,1004.43
2017-05-30T02:05:43.436Z,1004.41
2017-05-30T02:06:44.892Z,1004.40
2017-05-30T02:07:46.354Z,1004.40
2017-05-30T02:08:47.815Z,1004.41
2017-05-30T02:09:49.269Z,1004.42
2017-05-30T02:10:50.727Z,1004.40
2017-05-30T02:11:52.189Z,1004.34
2017-05-30T02:12:53.651Z,1004.32
2017-05-30T02:13:55.106Z,1004.30
2017-05-30T02:14:56.567Z,1004.26
2017-05-30T02:15:58.025Z,1004.22
2017-05-30T02:16:59.492Z,1004.19
2017-05-30T02:18:00.948Z,1004.15
2017-05-30T02:19:02.404Z,1004.13
2017-05-30T02:20:03.872Z,1004.18
2017-05-30T02:21:05.329Z,1004.22
2017-05-30T02:22:06.793Z,1004.36
2017-05-30T02:23:08.252Z,1004.50
2017-05-30T02:24:09.709Z,1004.64
2017-05-30T02:25:11.165Z,1004.64
2017-05-30T02:26:12.650Z,1004.67
2017-05-30T02:27:14.111Z,1004.66
2017-05-30T02:28:15.571Z,1004.67
2017-05-30T02:29:17.031Z,1004.65
2017-05-30T02:30:18.493Z,1004.71
2017-05-30T02:31:19.951Z,1004.72
2017-05-30T02:32:21.405Z,1004.76
2017-05-30T02:33:22.860Z,1004.81
2017-05-30T02:34:24.320Z,1004.83
2017-05-30T02:35:25.780Z,1004.79
2017-05-30T02:36:27.240Z,1004.82
2017-05-30T02:37:28.699Z,1004.87
2017-05-30T02:38:30.163Z,1004.87
2017-05-30T02:39:31.623Z,1004.80
2017-05-30T02:40:33.084Z,1004.76
2017-05-30T02:41:34.536Z,1004.79
2017-05-30T02:42:35.994Z,1004.86
2017-05-30T02:43:37.459Z,1004.86
2017-05-30T02:44:38.925Z,1004.82
2017-05-30T02:45:40.385Z,1004.80
2017-05-30T02:46:41.840Z,1004.75
2017-05-30T02:47:43.300Z,1004.75
2017-05-30T02:48:44.758Z,1004.80
2017-05-30T02:49:46.221Z,1004.84
2017-05-30T02:50:47.679Z,1004.81
2017-05-30T02:51:49.134Z,1004.84
2017-05-30T02:52:50.592Z,1004.87
2017-05-30T02:53:52.065Z,1004.78
2017-05-30T02:54:53.533Z,1004.72
2017-05-30T02:55:54.994Z,1004.72
2017-05-30T02:56:56.449Z,1004.75
2017-05-30T02:57:57.913Z,1004.81
2017-05-30T02:58:59.372Z,1004.88
2017-05-30T03:00:00.834Z,1004.81
2017-05-30T03:01:02.293Z,1004.79
2017-05-30T03:02:03.751Z,1004.81
2017-05-30T03:03:05.206Z,1004.82
2017-05-30T03:04:06.677Z,1004.89
2017-05-30T03:05:08.133Z,1004.88
2017-05-30T03:06:09.599Z,1004.84
2017-05-30T03:07:11.056Z,1004.88
2017-05-30T03:08:12.510Z,1004.89
2017-05-30T03:09:13.967Z,1004.90
2017-05-30T03:10:15.425Z,1004.87
2017-05-30T03:11:16.892Z,1004.86
2017-05-30T03:12:18.352Z,1004.86
2017-05-30T03:13:19.815Z,1004.86
2017-05-30T03:14:21.273Z,1004.83
2017-05-30T03:15:22.734Z,1004.79
2017-05-30T03:16:24.194Z,1004.84
2017-05-30T03:17:25.662Z,1004.89
2017-05-30T03:18:27.122Z,1005.01
2017-05-30T03:19:28.588Z,1005.05
2017-05-30T03:20:30.049Z,1005.05
2017-05-30T03:21:31.506Z,1005.12
2017-05-30T03:22:32.963Z,1005.09
2017-05-30T03:23:34.419Z,1005.12
2017-05-30T03:24:35.897Z,1005.13
2017-05-30T03:25:37.360Z,1005.14
2017-05-30T03:26:38.823Z,1005.18
2017-05-30T03:27:40.286Z,1005.19
2017-05-30T03:28:41.784Z,1005.29
2017-05-30T03:29:43.243Z,1005.23
2017-05-30T03:30:44.705Z,1005.26
2017-05-30T03:31:46.161Z,1005.23
2017-05-30T03:32:47.632Z,1005.24
2017-05-30T03:33:49.095Z,1005.29
2017-05-30T03:34:50.559Z,1005.25
2017-05-30T03:35:52.017Z,1005.23
2017-05-30T03:36:53.483Z,1005.26
2017-05-30T03:37:54.947Z,1005.30
2017-05-30T03:38:56.409Z,1005.29
2017-05-30T03:39:57.871Z,1005.30
2017-05-30T03:40:59.336Z,1005.35
2017-05-30T03:42:00.799Z,1005.35
2017-05-30T03:43:02.255Z,1005.38
2017-05-30T03:44:03.714Z,1005.35
2017-05-30T03:45:05.186Z,1005.38
2017-05-30T03:46:06.648Z,1005.38
2017-05-30T03:47:08.106Z,1005.37
2017-05-30T03:48:09.570Z,1005.41
2017-05-30T03:49:11.034Z,1005.45
2017-05-30T03:50:12.504Z,1005.41
2017-05-30T03:51:13.964Z,1005.43
2017-05-30T03:52:15.424Z,1005.45
2017-05-30T03:53:16.883Z,1005.45
2017-05-30T03:54:18.347Z,1005.50
2017-05-30T03:55:19.820Z,1005.49
2017-05-30T03:56:21.292Z,1005.48
2017-05-30T03:57:22.750Z,1005.49
2017-05-30T03:58:24.209Z,1005.47
2017-05-30T03:59:25.671Z,1005.49
2017-05-30T04:00:27.131Z,1005.49
2017-05-30T04:01:28.588Z,1005.47
2017-05-30T04:02:30.054Z,1005.47
2017-05-30T04:03:31.524Z,1005.44
2017-05-30T04:04:32.984Z,1005.44
2017-05-30T04:05:34.452Z,1005.45
2017-05-30T04:06:35.911Z,1005.46
2017-05-30T04:07:37.368Z,1005.47
2017-05-30T04:08:38.831Z,1005.51
2017-05-30T04:09:40.300Z,1005.53
2017-05-30T04:10:41.759Z,1005.52
2017-05-30T04:11:43.218Z,1005.52
2017-05-30T04:12:44.677Z,1005.54
2017-05-30T04:13:46.137Z,1005.52
2017-05-30T04:14:47.599Z,1005.53
2017-05-30T04:15:49.063Z,1005.53
2017-05-30T04:16:50.525Z,1005.53
2017-05-30T04:17:51.986Z,1005.55
2017-05-30T04:18:53.448Z,1005.57
2017-05-30T04:19:54.908Z,1005.59
2017-05-30T04:20:56.371Z,1005.59
2017-05-30T04:21:57.827Z,1005.60
2017-05-30T04:22:59.287Z,1005.62
2017-05-30T04:24:00.750Z,1005.63
2017-05-30T04:25:02.213Z,1005.64
2017-05-30T04:26:03.682Z,1005.67
2017-05-30T04:27:05.135Z,1005.69
2017-05-30T04:28:06.601Z,1005.73
2017-05-30T04:29:08.062Z,1005.71
2017-05-30T04:30:09.545Z,1005.68
2017-05-30T04:31:11.009Z,1005.70
2017-05-30T04:32:12.478Z,1005.72
2017-05-30T04:33:13.934Z,1005.71
2017-05-30T04:34:15.396Z,1005.71
2017-05-30T04:35:16.857Z,1005.70
2017-05-30T04:36:18.321Z,1005.70
2017-05-30T04:37:19.782Z,1005.68
2017-05-30T04:38:21.251Z,1005.68
2017-05-30T04:39:22.718Z,1005.69
2017-05-30T04:40:24.179Z,1005.65
2017-05-30T04:41:25.638Z,1005.65
2017-05-30T04:42:27.097Z,1005.68
2017-05-30T04:43:28.566Z,1005.67
2017-05-30T04:44:30.029Z,1005.66
2017-05-30T04:45:31.496Z,1005.68
2017-05-30T04:46:32.963Z,1005.69
2017-05-30T04:47:34.421Z,1005.68
2017-05-30T04:48:35.885Z,1005.74
2017-05-30T04:49:37.351Z,1005.72
2017-05-30T04:50:38.820Z,1005.76
2017-05-30T04:51:40.288Z,1005.71
2017-05-30T04:52:41.755Z,1005.76
2017-05-30T04:53:43.211Z,1005.82
2017-05-30T04:54:44.684Z,1005.84
2017-05-30T04:55:46.155Z,1005.83
2017-05-30T04:56:47.613Z,1005.83
2017-05-30T04:57:49.074Z,1005.85
2017-05-30T04:58:50.541Z,1005.87
2017-05-30T04:59:52.005Z,1005.84
2017-05-30T05:00:53.471Z,1005.84
2017-05-30T05:01:54.934Z,1005.88
2017-05-30T05:02:56.397Z,1005.85
2017-05-30T05:03:57.861Z,1005.86
2017-05-30T05:04:59.326Z,1005.84
2017-05-30T05:06:00.801Z,1005.92
2017-05-30T05:07:02.271Z,1005.85
2017-05-30T05:08:03.775Z,1005.82
2017-05-30T05:09:05.257Z,1005.87
2017-05-30T05:10:06.728Z,1005.80
2017-05-30T05:11:08.194Z,1005.82
2017-05-30T05:12:09.654Z,1005.79
2017-05-30T05:13:11.119Z,1005.85
2017-05-30T05:14:12.588Z,1005.83
2017-05-30T05:15:14.058Z,1005.89
2017-05-30T05:16:15.539Z,1005.91
2017-05-30T05:17:17.008Z,1005.97
2017-05-30T05:18:18.472Z,1005.96
2017-05-30T05:19:19.943Z,1005.96
2017-05-30T05:20:21.408Z,1005.94
2017-05-30T05:21:22.872Z,1006.01
2017-05-30T05:22:24.338Z,1006.06
2017-05-30T05:23:25.806Z,1006.04
2017-05-30T05:24:27.267Z,1006.04
2017-05-30T05:25:28.734Z,1006.08
2017-05-30T05:26:30.215Z,1006.05
2017-05-30T05:27:31.681Z,1006.12
2017-05-30T05:28:33.145Z,1006.10
2017-05-30T05:29:34.617Z,1006.13
2017-05-30T05:30:36.082Z,1006.08
2017-05-30T05:31:37.545Z,1006.08
2017-05-30T05:32:39.008Z,1006.14
2017-05-30T05:33:40.477Z,1006.17
2017-05-30T05:34:41.955Z,1006.20
2017-05-30T05:35:43.428Z,1006.16
2017-05-30T05:36:44.893Z,1006.17
2017-05-30T05:37:46.360Z,1006.21
2017-05-30T05:38:47.825Z,1006.24
2017-05-30T05:39:49.293Z,1006.26
2017-05-30T05:40:50.758Z,1006.28
2017-05-30T05:41:52.222Z,1006.31
2017-05-30T05:42:53.695Z,1006.24
2017-05-30T05:43:55.173Z,1006.28
2017-05-30T05:44:56.640Z,1006.25
2017-05-30T05:45:58.103Z,1006.27
2017-05-30T05:46:59.584Z,1006.25
2017-05-30T05:48:01.048Z,1006.23
2017-05-30T05:49:02.522Z,1006.24
2017-05-30T05:50:03.999Z,1006.24
2017-05-30T05:51:05.460Z,1006.29
2017-05-30T05:52:06.955Z,1006.31
2017-05-30T05:53:08.430Z,1006.33
2017-05-30T05:54:09.897Z,1006.36
2017-05-30T05:55:11.380Z,1006.38
2017-05-30T05:56:12.855Z,1006.42
2017-05-30T05:57:14.359Z,1006.43
2017-05-30T05:58:15.829Z,1006.44
2017-05-30T05:59:17.305Z,1006.44
2017-05-30T06:00:18.772Z,1006.54
2017-05-30T06:01:20.241Z,1006.54
2017-05-30T06:02:21.706Z,1006.48
2017-05-30T06:03:23.176Z,1006.52
2017-05-30T06:04:24.644Z,1006.56
2017-05-30T06:05:26.118Z,1006.56
2017-05-30T06:06:27.589Z,1006.64
2017-05-30T06:07:29.064Z,1006.68
2017-05-30T06:08:30.538Z,1006.72
2017-05-30T06:09:32.000Z,1006.75
2017-05-30T06:10:33.472Z,1006.73
2017-05-30T06:11:34.952Z,1006.81
2017-05-30T06:12:36.446Z,1006.78
2017-05-30T06:13:37.912Z,1006.82
2017-05-30T06:14:39.413Z,1006.76
2017-05-30T06:15:40.872Z,1006.88
2017-05-30T06:16:42.371Z,1006.86
2017-05-30T06:17:43.912Z,1006.84
2017-05-30T06:18:45.385Z,1006.82
2017-05-30T06:19:46.855Z,1006.85
2017-05-30T06:20:48.328Z,1006.85
2017-05-30T06:21:49.816Z,1006.86
2017-05-30T06:22:51.287Z,1006.91
2017-05-30T06:23:52.755Z,1006.96
2017-05-30T06:24:54.229Z,1006.94
2017-05-30T06:25:55.710Z,1007.01
2017-05-30T06:26:57.190Z,1006.97
2017-05-30T06:27:58.659Z,1006.99
2017-05-30T06:29:00.129Z,1007.05
2017-05-30T06:30:01.615Z,1007.05
2017-05-30T06:31:03.086Z,1007.02
2017-05-30T06:32:04.567Z,1006.97
2017-05-30T06:33:06.039Z,1006.96
2017-05-30T06:34:07.516Z,1007.08
2017-05-30T06:35:08.988Z,1007.04
2017-05-30T06:36:10.478Z,1007.07
2017-05-30T06:37:11.948Z,1007.06
2017-05-30T06:38:13.416Z,1006.99
2017-05-30T06:39:14.895Z,1007.01
2017-05-30T06:40:16.377Z,1007.03
2017-05-30T06:41:17.839Z,1007.13
2017-05-30T06:42:19.317Z,1007.27
2017-05-30T06:43:20.801Z,1007.31
2017-05-30T06:44:22.273Z,1007.31
2017-05-30T06:45:23.745Z,1007.32
2017-05-30T06:46:25.213Z,1007.31
2017-05-30T06:47:26.694Z,1007.43
2017-05-30T06:48:28.172Z,1007.52
2017-05-30T06:49:29.644Z,1007.60
2017-05-30T06:50:31.124Z,1007.38
2017-05-30T06:51:32.595Z,1007.21
2017-05-30T06:52:34.068Z,1007.27
2017-05-30T06:53:35.557Z,1007.18
2017-05-30T06:54:37.035Z,1007.05
2017-05-30T06:55:38.505Z,1007.06
2017-05-30T06:56:39.983Z,1007.05
2017-05-30T06:57:41.455Z,1007.10
2017-05-30T06:58:42.930Z,1007.09
2017-05-30T06:59:44.412Z,1007.06
2017-05-30T07:00:45.895Z,1007.07
2017-05-30T07:01:47.376Z,1007.09
2017-05-30T07:02:48.850Z,1007.09
2017-05-30T07:03:50.378Z,1007.09
2017-05-30T07:04:51.794Z,1007.15
2017-05-30T07:05:53.267Z,1007.15
2017-05-30T07:06:54.740Z,1007.11
2017-05-30T07:07:56.217Z,1007.16
2017-05-30T07:08:57.693Z,1007.10
2017-05-30T07:09:59.167Z,1007.07
2017-05-30T07:11:00.643Z,1007.08
2017-05-30T07:12:02.135Z,1007.10
2017-05-30T07:13:03.612Z,1007.10
2017-05-30T07:14:05.080Z,1007.09
2017-05-30T07:15:06.557Z,1007.06
2017-05-30T07:16:08.039Z,1007.02
2017-05-30T07:17:09.515Z,1007.04
2017-05-30T07:18:10.995Z,1007.12
2017-05-30T07:19:12.465Z,1007.07
2017-05-30T07:20:13.933Z,1007.10
2017-05-30T07:21:15.417Z,1007.02
2017-05-30T07:22:16.912Z,1007.08
2017-05-30T07:23:18.449Z,1007.09
2017-05-30T07:24:19.929Z,1007.12
2017-05-30T07:25:21.419Z,1007.06
2017-05-30T07:26:22.900Z,1007.10
2017-05-30T07:27:24.376Z,1007.11
2017-05-30T07:28:25.848Z,1007.19
2017-05-30T07:29:27.322Z,1007.26
2017-05-30T07:30:28.819Z,1007.29
2017-05-30T07:31:30.303Z,1007.27
2017-05-30T07:32:31.768Z,1007.23
2017-05-30T07:33:33.240Z,1007.17
2017-05-30T07:34:34.729Z,1007.11
2017-05-30T07:35:36.200Z,1007.04
2017-05-30T07:36:37.674Z,1007.02
2017-05-30T07:37:39.149Z,1007.01
2017-05-30T07:38:40.619Z,1007.07
2017-05-30T07:39:42.094Z,1007.10
2017-05-30T07:40:43.562Z,1007.10
2017-05-30T07:41:45.044Z,1007.21
2017-05-30T07:42:46.518Z,1007.10
2017-05-30T07:43:47.995Z,1007.07
2017-05-30T07:44:49.479Z,1007.16
2017-05-30T07:45:50.955Z,1007.39
2017-05-30T07:46:52.426Z,1007.18
2017-05-30T07:47:53.914Z,1007.20
2017-05-30T07:48:55.391Z,1007.15
2017-05-30T07:49:56.866Z,1007.22
2017-05-30T07:50:58.341Z,1007.32
2017-05-30T07:51:59.823Z,1007.46
2017-05-30T07:53:01.304Z,1007.47
2017-05-30T07:54:02.779Z,1007.46
2017-05-30T07:55:04.248Z,1007.46
2017-05-30T07:56:05.732Z,1007.47
2017-05-30T07:57:07.204Z,1007.48
2017-05-30T07:58:08.679Z,1007.44
2017-05-30T07:59:10.152Z,1007.30
2017-05-30T08:00:11.633Z,1007.28
2017-05-30T08:01:13.106Z,1007.43
2017-05-30T08:02:14.578Z,1007.46
2017-05-30T08:03:16.058Z,1007.49
2017-05-30T08:04:17.542Z,1007.45
2017-05-30T08:05:19.020Z,1007.43
2017-05-30T08:06:20.551Z,1007.44
2017-05-30T08:07:22.043Z,1007.45
2017-05-30T08:08:23.564Z,1007.42
2017-05-30T08:09:25.037Z,1007.41
2017-05-30T08:10:26.515Z,1007.28
2017-05-30T08:11:27.999Z,1007.40
2017-05-30T08:12:29.478Z,1007.37
2017-05-30T08:13:30.952Z,1007.38
2017-05-30T08:14:32.625Z,1007.34
2017-05-30T08:15:34.103Z,1007.45
2017-05-30T08:16:35.582Z,1007.46
2017-05-30T08:17:37.070Z,1007.49
2017-05-30T08:18:38.536Z,1007.40
2017-05-30T08:19:40.015Z,1007.42
2017-05-30T08:20:41.510Z,1007.39
2017-05-30T08:21:42.994Z,1007.35
2017-05-30T08:22:44.486Z,1007.36
2017-05-30T08:23:45.981Z,1007.39
2017-05-30T08:24:47.467Z,1007.39
2017-05-30T08:25:48.962Z,1007.39
2017-05-30T08:26:50.446Z,1007.46
2017-05-30T08:27:51.975Z,1007.44
2017-05-30T08:28:53.458Z,1007.48
2017-05-30T08:29:54.951Z,1007.50
2017-05-30T08:30:56.462Z,1007.53
2017-05-30T08:31:57.980Z,1007.55
2017-05-30T08:32:59.471Z,1007.41
2017-05-30T08:34:00.950Z,1007.33
2017-05-30T08:35:02.439Z,1007.50
2017-05-30T08:36:04.037Z,1007.47
2017-05-30T08:37:05.536Z,1007.35
2017-05-30T08:38:07.019Z,1007.33
2017-05-30T08:39:08.507Z,1007.43
2017-05-30T08:40:09.998Z,1007.45
2017-05-30T08:41:11.477Z,1007.40
2017-05-30T08:42:12.967Z,1007.47
2017-05-30T08:43:14.448Z,1007.49
2017-05-30T08:44:15.940Z,1007.56
2017-05-30T08:45:17.522Z,1007.59
2017-05-30T08:46:19.007Z,1007.53
2017-05-30T08:47:20.484Z,1007.47
2017-05-30T08:48:21.967Z,1007.43
2017-05-30T08:49:23.509Z,1007.48
2017-05-30T08:50:24.998Z,1007.44
2017-05-30T08:51:26.477Z,1007.41
2017-05-30T08:52:27.960Z,1007.42
2017-05-30T08:53:29.444Z,1007.53
2017-05-30T08:54:30.930Z,1007.58
2017-05-30T08:55:32.410Z,1007.57
2017-05-30T08:56:33.899Z,1007.50
2017-05-30T08:57:35.378Z,1007.52
2017-05-30T08:58:36.854Z,1007.55
2017-05-30T08:59:38.339Z,1007.43
2017-05-30T09:00:39.815Z,1007.48
2017-05-30T09:01:41.295Z,1007.43
2017-05-30T09:02:42.779Z,1007.38
2017-05-30T09:03:44.257Z,1007.43
2017-05-30T09:04:45.746Z,1007.48
2017-05-30T09:05:47.223Z,1007.58
2017-05-30T09:06:48.713Z,1007.52
2017-05-30T09:07:50.192Z,1007.49
2017-05-30T09:08:51.672Z,1007.52
2017-05-30T09:09:53.162Z,1007.53
2017-05-30T09:10:54.655Z,1007.61
2017-05-30T09:11:56.143Z,1007.59
2017-05-30T09:12:57.627Z,1007.57
2017-05-30T09:13:59.115Z,1007.48
2017-05-30T09:15:00.596Z,1007.58
2017-05-30T09:16:02.077Z,1007.59
2017-05-30T09:17:03.561Z,1007.73
2017-05-30T09:18:05.047Z,1007.77
2017-05-30T09:19:06.535Z,1007.66
2017-05-30T09:20:08.025Z,1007.56
2017-05-30T09:21:09.510Z,1007.47
2017-05-30T09:22:10.996Z,1007.66
2017-05-30T09:23:12.489Z,1007.72
2017-05-30T09:24:13.978Z,1007.83
2017-05-30T09:25:15.468Z,1007.89
2017-05-30T09:26:16.954Z,1007.89
2017-05-30T09:27:18.431Z,1007.74
2017-05-30T09:28:19.923Z,1007.83
2017-05-30T09:29:21.397Z,1007.96
2017-05-30T09:30:22.874Z,1007.81
2017-05-30T09:31:24.361Z,1007.87
2017-05-30T09:32:25.860Z,1007.94
2017-05-30T09:33:27.360Z,1007.96
2017-05-30T09:34:28.839Z,1007.77
2017-05-30T09:35:30.320Z,1007.84
2017-05-30T09:36:31.807Z,1007.77
2017-05-30T09:37:33.292Z,1007.89
2017-05-30T09:38:34.774Z,1007.81
2017-05-30T09:39:36.260Z,1007.77
2017-05-30T09:40:37.750Z,1007.87
2017-05-30T09:41:39.240Z,1007.96
2017-05-30T09:42:40.731Z,1007.94
2017-05-30T09:43:42.210Z,1007.86
2017-05-30T09:44:43.700Z,1007.88
2017-05-30T09:45:45.187Z,1007.94
2017-05-30T09:46:46.667Z,1007.79
2017-05-30T09:47:48.156Z,1007.79
2017-05-30T09:48:49.635Z,1007.71
2017-05-30T09:49:51.109Z,1007.81
2017-05-30T09:50:52.593Z,1007.73
2017-05-30T09:51:54.076Z,1007.71
2017-05-30T09:52:55.555Z,1007.67
2017-05-30T09:53:57.036Z,1007.67
2017-05-30T09:54:58.527Z,1007.71
2017-05-30T09:56:00.012Z,1007.89
2017-05-30T09:57:01.491Z,1007.61
2017-05-30T09:58:02.966Z,1007.61
2017-05-30T09:59:04.459Z,1007.80
2017-05-30T10:00:05.938Z,1007.61
2017-05-30T10:01:07.440Z,1007.60
2017-05-30T10:02:08.916Z,1007.70
2017-05-30T10:03:10.408Z,1007.67
2017-05-30T10:04:11.886Z,1008.00
2017-05-30T10:05:13.392Z,1007.99
2017-05-30T10:06:14.890Z,1007.94
2017-05-30T10:07:16.382Z,1007.84
2017-05-30T10:08:17.882Z,1008.09
2017-05-30T10:09:19.372Z,1007.76
2017-05-30T10:10:20.842Z,1007.82
2017-05-30T10:11:22.317Z,1007.95
2017-05-30T10:12:23.795Z,1007.74
2017-05-30T10:13:25.275Z,1007.87
2017-05-30T10:14:26.755Z,1007.82
2017-05-30T10:15:28.252Z,1007.89
2017-05-30T10:16:29.740Z,1007.82
2017-05-30T10:17:31.230Z,1008.01
2017-05-30T10:18:32.707Z,1007.90
2017-05-30T10:19:34.189Z,1007.92
2017-05-30T10:20:35.673Z,1007.81
2017-05-30T10:21:37.154Z,1007.68
2017-05-30T10:22:38.625Z,1007.58
2017-05-30T10:23:40.130Z,1007.54
2017-05-30T10:24:41.603Z,1007.59
2017-05-30T10:25:43.073Z,1007.53
2017-05-30T10:26:44.566Z,1007.52
2017-05-30T10:27:46.044Z,1007.53
2017-05-30T10:28:47.533Z,1007.58
2017-05-30T10:29:49.025Z,1007.64
2017-05-30T10:30:50.502Z,1007.68
2017-05-30T10:31:51.985Z,1007.97
2017-05-30T10:32:53.479Z,1007.67
2017-05-30T10:33:54.953Z,1007.64
2017-05-30T10:34:56.435Z,1007.66
2017-05-30T10:35:59.643Z,1007.65
2017-05-30T10:37:01.129Z,1007.62
2017-05-30T10:38:02.622Z,1007.89
2017-05-30T10:39:04.105Z,1007.71
2017-05-30T10:40:05.581Z,1007.94
2017-05-30T10:41:07.064Z,1008.11
2017-05-30T10:42:08.544Z,1008.11
2017-05-30T10:43:10.026Z,1007.94
2017-05-30T10:44:11.503Z,1008.01
2017-05-30T10:45:12.993Z,1007.98
2017-05-30T10:46:14.469Z,1007.98
2017-05-30T10:47:15.955Z,1007.87
2017-05-30T10:48:17.457Z,1008.01
2017-05-30T10:49:18.937Z,1007.95
2017-05-30T10:50:20.425Z,1007.94
2017-05-30T10:51:21.902Z,1007.87
2017-05-30T10:52:23.385Z,1007.94
2017-05-30T10:53:24.863Z,1008.02
2017-05-30T10:54:26.396Z,1007.88
2017-05-30T10:55:27.859Z,1008.02
2017-05-30T10:56:29.342Z,1008.14
2017-05-30T10:57:30.825Z,1007.86
2017-05-30T10:58:32.347Z,1007.98
2017-05-30T10:59:33.832Z,1008.06
2017-05-30T11:00:35.321Z,1008.05
2017-05-30T11:01:36.804Z,1008.08
2017-05-30T11:02:38.283Z,1008.08
2017-05-30T11:03:39.773Z,1008.02
2017-05-30T11:04:41.251Z,1008.04
2017-05-30T11:05:42.735Z,1008.00
2017-05-30T11:06:44.229Z,1007.94
2017-05-30T11:07:45.729Z,1007.76
2017-05-30T11:08:47.203Z,1007.72
2017-05-30T11:09:48.685Z,1007.70
2017-05-30T11:10:50.176Z,1007.79
2017-05-30T11:11:51.692Z,1007.86
2017-05-30T11:12:53.143Z,1007.91
2017-05-30T11:13:54.666Z,1008.06
2017-05-30T11:14:56.160Z,1008.15
2017-05-30T11:15:57.666Z,1008.12
2017-05-30T11:16:59.136Z,1007.91
2017-05-30T11:18:00.621Z,1007.92
2017-05-30T11:19:02.117Z,1007.82
2017-05-30T11:20:03.601Z,1007.75
2017-05-30T11:21:05.087Z,1007.73
2017-05-30T11:22:06.566Z,1007.72
2017-05-30T11:23:08.050Z,1007.50
2017-05-30T11:24:09.531Z,1007.46
2017-05-30T11:25:11.021Z,1007.40
2017-05-30T11:26:12.503Z,1007.47
2017-05-30T11:27:14.014Z,1007.38
2017-05-30T11:28:15.484Z,1007.42
2017-05-30T11:29:16.961Z,1007.40
2017-05-30T11:30:18.439Z,1007.32
2017-05-30T11:31:19.918Z,1007.27
2017-05-30T11:32:21.400Z,1007.37
2017-05-30T11:33:22.887Z,1007.32
2017-05-30T11:34:24.365Z,1007.33
2017-05-30T11:35:25.842Z,1007.31
2017-05-30T11:36:27.321Z,1007.35
2017-05-30T11:37:28.799Z,1007.34
2017-05-30T11:38:30.278Z,1007.34
2017-05-30T11:39:31.751Z,1007.33
2017-05-30T11:40:33.227Z,1007.25
2017-05-30T11:41:34.708Z,1007.33
2017-05-30T11:42:36.177Z,1007.38
2017-05-30T11:44:39.622Z,1007.63
2017-05-30T11:45:41.098Z,1007.88
2017-05-30T11:46:42.583Z,1007.97
2017-05-30T11:47:44.067Z,1007.96
2017-05-30T11:48:45.547Z,1007.96
2017-05-30T11:49:47.022Z,1008.06
2017-05-30T11:50:48.500Z,1007.83
2017-05-30T11:51:49.973Z,1007.66
2017-05-30T11:52:51.444Z,1007.68
2017-05-30T11:53:52.921Z,1007.49
2017-05-30T11:54:54.402Z,1007.44
2017-05-30T11:55:55.880Z,1007.40
2017-05-30T11:56:57.366Z,1007.36
2017-05-30T11:57:58.846Z,1007.27
2017-05-30T11:59:00.323Z,1007.28
2017-05-30T12:00:01.793Z,1007.21
2017-05-30T12:01:03.272Z,1007.23
2017-05-30T12:02:04.747Z,1007.17
2017-05-30T12:03:06.229Z,1007.23
2017-05-30T12:04:07.709Z,1007.29
2017-05-30T12:05:09.201Z,1007.23
2017-05-30T12:06:10.693Z,1007.22
2017-05-30T12:07:12.195Z,1007.24
2017-05-30T12:08:13.668Z,1007.28
2017-05-30T12:09:15.138Z,1007.19
2017-05-30T12:10:16.618Z,1007.13
2017-05-30T12:11:18.089Z,1007.22
2017-05-30T12:12:19.564Z,1007.18
2017-05-30T12:13:21.024Z,1007.15
2017-05-30T12:14:22.500Z,1007.09
2017-05-30T12:15:23.964Z,1007.07
2017-05-30T12:16:25.439Z,1007.06
2017-05-30T12:17:26.910Z,1007.11
2017-05-30T12:18:28.386Z,1007.08
2017-05-30T12:19:29.857Z,1007.12
2017-05-30T12:20:31.326Z,1007.05
2017-05-30T12:21:32.835Z,1007.14
2017-05-30T12:22:34.293Z,1007.23
2017-05-30T12:23:35.766Z,1007.37
2017-05-30T12:24:37.238Z,1007.60